createdAt,value
2016-12-04T00:00:07.384Z,1.25
2016-12-04T00:01:07.970Z,1.31
2016-12-04T00:02:07.569Z,1.24
2016-12-04T00:03:07.041Z,1.33
2016-12-04T00:04:07.663Z,1.39
2016-12-04T00:05:07.212Z,1.31
2016-12-04T00:06:07.850Z,1.37
2016-12-04T00:07:07.482Z,1.19
2016-12-04T00:08:08.148Z,1.29
2016-12-04T00:09:07.759Z,1.21
2016-12-04T00:10:07.408Z,1.04
2016-12-04T00:11:07.988Z,1.06
2016-12-04T00:12:07.543Z,1.17
2016-12-04T00:13:08.230Z,1.25
2016-12-04T00:14:07.817Z,1.35
2016-12-04T00:15:07.337Z,1.34
2016-12-04T00:16:08.032Z,1.24
2016-12-04T00:17:08.019Z,1.32
2016-12-04T00:18:07.740Z,1.45
2016-12-04T00:19:07.363Z,1.29
2016-12-04T00:20:07.420Z,1.09
2016-12-04T00:21:08.107Z,1.07
2016-12-04T00:22:07.587Z,1.20
2016-12-04T00:23:07.074Z,1.07
2016-12-04T00:24:07.683Z,1.19
2016-12-04T00:25:07.273Z,1.08
2016-12-04T00:26:07.865Z,1.06
2016-12-04T00:27:07.364Z,1.07
2016-12-04T00:28:07.937Z,1.03
2016-12-04T00:29:07.572Z,1.28
2016-12-04T00:30:08.175Z,1.11
2016-12-04T00:31:07.805Z,1.11
2016-12-04T00:32:07.364Z,1.16
2016-12-04T00:33:08.009Z,1.17
2016-12-04T00:34:07.599Z,1.23
2016-12-04T00:35:07.133Z,1.25
2016-12-04T00:36:07.675Z,1.21
2016-12-04T00:37:07.206Z,1.24
2016-12-04T00:38:07.832Z,1.09
2016-12-04T00:39:07.375Z,1.31
2016-12-04T00:40:07.951Z,1.13
2016-12-04T00:41:07.505Z,1.25
2016-12-04T00:42:08.097Z,1.26
2016-12-04T00:43:07.719Z,1.27
2016-12-04T00:44:07.278Z,1.13
2016-12-04T00:45:07.851Z,1.03
2016-12-04T00:46:07.356Z,1.24
2016-12-04T00:47:08.084Z,0.96
2016-12-04T00:48:07.640Z,1.06
2016-12-04T00:49:07.160Z,1.03
2016-12-04T00:50:07.690Z,0.93
2016-12-04T00:51:07.273Z,0.95
2016-12-04T00:52:07.929Z,0.94
2016-12-04T00:53:07.492Z,1.01
2016-12-04T00:54:08.235Z,1.07
2016-12-04T00:55:07.941Z,1.26
2016-12-04T00:56:07.546Z,1.08
2016-12-04T00:57:08.134Z,1.13
2016-12-04T00:58:07.745Z,1.27
2016-12-04T00:59:07.257Z,1.11
2016-12-04T01:00:07.917Z,1.18
2016-12-04T01:01:07.440Z,1.08
2016-12-04T01:02:08.021Z,1.07
2016-12-04T01:03:07.662Z,1.01
2016-12-04T01:04:07.207Z,1.16
2016-12-04T01:05:08.061Z,1.11
2016-12-04T01:06:07.590Z,1.17
2016-12-04T01:07:07.151Z,1.22
2016-12-04T01:08:07.841Z,1.14
2016-12-04T01:09:07.397Z,1.13
2016-12-04T01:10:07.917Z,1.13
2016-12-04T01:11:07.854Z,1.14
2016-12-04T01:12:07.497Z,1.03
2016-12-04T01:13:08.090Z,1.13
2016-12-04T01:14:07.735Z,1.18
2016-12-04T01:15:07.379Z,1.24
2016-12-04T01:16:07.684Z,0.98
2016-12-04T01:17:07.501Z,0.88
2016-12-04T01:18:07.764Z,1.05
2016-12-04T01:19:07.525Z,0.93
2016-12-04T01:20:08.036Z,1.05
2016-12-04T01:21:07.301Z,1.02
2016-12-04T01:22:07.205Z,0.95
2016-12-04T01:23:07.918Z,0.86
2016-12-04T01:24:10.463Z,1.30
2016-12-04T01:25:07.489Z,1.23
2016-12-04T01:26:08.033Z,1.27
2016-12-04T01:27:08.367Z,0.86
2016-12-04T01:28:07.874Z,1.04
2016-12-04T01:29:07.385Z,1.08
2016-12-04T01:30:07.926Z,1.15
2016-12-04T01:31:08.367Z,0.97
2016-12-04T01:32:07.416Z,1.00
2016-12-04T01:33:08.043Z,1.03
2016-12-04T01:34:07.782Z,1.08
2016-12-04T01:35:07.901Z,0.98
2016-12-04T01:36:08.071Z,1.19
2016-12-04T01:37:07.564Z,1.11
2016-12-04T01:38:07.158Z,1.09
2016-12-04T01:39:07.717Z,0.97
2016-12-04T01:40:07.258Z,1.10
2016-12-04T01:41:07.928Z,1.08
2016-12-04T01:42:07.071Z,1.14
2016-12-04T01:43:07.767Z,1.44
2016-12-04T01:44:07.418Z,1.40
2016-12-04T01:45:08.169Z,1.43
2016-12-04T01:46:07.901Z,1.12
2016-12-04T01:47:07.387Z,1.26
2016-12-04T01:48:08.086Z,1.44
2016-12-04T01:49:07.646Z,1.45
2016-12-04T01:50:07.140Z,1.28
2016-12-04T01:51:07.746Z,1.45
2016-12-04T01:52:07.252Z,1.27
2016-12-04T01:53:07.661Z,1.24
2016-12-04T01:54:07.439Z,1.23
2016-12-04T01:55:08.144Z,1.22
2016-12-04T01:56:07.749Z,1.17
2016-12-04T01:57:07.254Z,1.30
2016-12-04T01:58:07.862Z,1.09
2016-12-04T01:59:07.402Z,1.08
2016-12-04T02:00:07.553Z,1.31
2016-12-04T02:01:08.120Z,1.06
2016-12-04T02:02:07.770Z,1.15
2016-12-04T02:03:07.351Z,1.06
2016-12-04T02:04:07.999Z,1.19
2016-12-04T02:05:07.590Z,1.23
2016-12-04T02:06:07.192Z,1.13
2016-12-04T02:07:07.728Z,0.90
2016-12-04T02:08:07.551Z,1.01
2016-12-04T02:09:07.149Z,0.99
2016-12-04T02:10:07.729Z,1.16
2016-12-04T02:11:07.286Z,1.29
2016-12-04T02:12:07.810Z,1.14
2016-12-04T02:13:07.399Z,1.32
2016-12-04T02:14:07.994Z,1.18
2016-12-04T02:15:07.474Z,1.15
2016-12-04T02:16:08.080Z,1.24
2016-12-04T02:17:07.710Z,1.16
2016-12-04T02:18:07.269Z,1.13
2016-12-04T02:19:07.871Z,0.97
2016-12-04T02:20:07.614Z,0.93
2016-12-04T02:21:07.097Z,0.82
2016-12-04T02:22:07.588Z,0.88
2016-12-04T02:23:07.137Z,0.96
2016-12-04T02:24:07.728Z,0.84
2016-12-04T02:25:08.508Z,0.96
2016-12-04T02:26:08.175Z,0.97
2016-12-04T02:27:07.837Z,0.78
2016-12-04T02:28:07.430Z,0.95
2016-12-04T02:29:08.004Z,0.89
2016-12-04T02:30:07.200Z,0.90
2016-12-04T02:31:07.622Z,1.00
2016-12-04T02:32:07.365Z,1.00
2016-12-04T02:33:07.901Z,1.02
2016-12-04T02:34:07.431Z,1.03
2016-12-04T02:35:08.074Z,0.77
2016-12-04T02:36:07.541Z,1.08
2016-12-04T02:37:08.192Z,0.97
2016-12-04T02:38:08.032Z,0.93
2016-12-04T02:39:07.638Z,1.07
2016-12-04T02:40:07.153Z,0.78
2016-12-04T02:41:07.749Z,0.72
2016-12-04T02:42:07.363Z,1.02
2016-12-04T02:43:08.162Z,1.21
2016-12-04T02:44:07.723Z,1.09
2016-12-04T02:45:07.244Z,0.92
2016-12-04T02:46:07.852Z,0.96
2016-12-04T02:47:07.449Z,0.84
2016-12-04T02:48:07.910Z,0.97
2016-12-04T02:49:07.729Z,1.08
2016-12-04T02:50:07.213Z,1.24
2016-12-04T02:51:07.779Z,1.30
2016-12-04T02:52:07.376Z,1.12
2016-12-04T02:53:07.929Z,1.06
2016-12-04T02:54:07.516Z,1.20
2016-12-04T02:55:08.078Z,1.28
2016-12-04T02:56:07.758Z,1.00
2016-12-04T02:57:07.317Z,0.96
2016-12-04T02:58:07.878Z,0.76
2016-12-04T02:59:07.461Z,0.64
2016-12-04T03:00:08.006Z,0.84
2016-12-04T03:01:07.544Z,0.93
2016-12-04T03:02:08.047Z,0.98
2016-12-04T03:03:07.881Z,1.07
2016-12-04T03:04:07.348Z,1.13
2016-12-04T03:05:07.926Z,0.97
2016-12-04T03:06:07.515Z,1.08
2016-12-04T03:07:08.109Z,0.81
2016-12-04T03:08:07.736Z,0.81
2016-12-04T03:09:07.253Z,0.78
2016-12-04T03:10:07.808Z,0.86
2016-12-04T03:11:07.331Z,1.04
2016-12-04T03:12:07.895Z,0.96
2016-12-04T03:13:08.030Z,0.67
2016-12-04T03:14:07.690Z,0.96
2016-12-04T03:15:07.343Z,0.98
2016-12-04T03:16:07.919Z,0.84
2016-12-04T03:17:07.602Z,0.98
2016-12-04T03:18:07.158Z,0.98
2016-12-04T03:19:07.752Z,1.03
2016-12-04T03:20:07.341Z,0.78
2016-12-04T03:21:07.942Z,0.95
2016-12-04T03:22:07.512Z,1.08
2016-12-04T03:23:08.185Z,0.96
2016-12-04T03:24:07.812Z,0.80
2016-12-04T03:25:07.337Z,0.88
2016-12-04T03:26:07.969Z,0.97
2016-12-04T03:27:07.411Z,0.69
2016-12-04T03:28:07.740Z,0.99
2016-12-04T03:29:07.215Z,0.95
2016-12-04T03:30:07.750Z,0.68
2016-12-04T03:31:07.336Z,0.75
2016-12-04T03:32:08.777Z,0.82
2016-12-04T03:33:07.341Z,0.79
2016-12-04T03:34:07.904Z,0.79
2016-12-04T03:35:07.458Z,0.81
2016-12-04T03:36:08.115Z,0.98
2016-12-04T03:37:07.563Z,0.80
2016-12-04T03:38:08.055Z,0.78
2016-12-04T03:39:07.587Z,0.87
2016-12-04T03:40:07.178Z,0.97
2016-12-04T03:41:07.779Z,1.05
2016-12-04T03:42:07.276Z,1.22
2016-12-04T03:43:07.750Z,1.09
2016-12-04T03:44:08.133Z,1.09
2016-12-04T03:45:07.708Z,1.02
2016-12-04T03:46:07.496Z,0.74
2016-12-04T03:47:08.166Z,0.86
2016-12-04T03:48:07.805Z,0.91
2016-12-04T03:49:07.359Z,0.85
2016-12-04T03:50:07.930Z,0.89
2016-12-04T03:51:12.380Z,1.00
2016-12-04T03:52:08.135Z,0.86
2016-12-04T03:53:07.656Z,0.88
2016-12-04T03:54:08.430Z,0.93
2016-12-04T03:55:08.077Z,0.80
2016-12-04T03:56:07.687Z,1.03
2016-12-04T03:57:07.166Z,1.15
2016-12-04T03:58:07.828Z,1.14
2016-12-04T03:59:07.368Z,1.09
2016-12-04T04:00:07.989Z,0.99
2016-12-04T04:01:07.512Z,1.09
2016-12-04T04:02:08.010Z,1.02
2016-12-04T04:03:07.505Z,1.01
2016-12-04T04:04:08.077Z,0.68
2016-12-04T04:05:07.565Z,0.87
2016-12-04T04:06:08.169Z,1.01
2016-12-04T04:07:07.787Z,0.85
2016-12-04T04:08:08.068Z,0.87
2016-12-04T04:09:07.630Z,0.75
2016-12-04T04:10:07.131Z,0.81
2016-12-04T04:11:07.749Z,0.87
2016-12-04T04:12:07.249Z,0.79
2016-12-04T04:13:07.749Z,0.83
2016-12-04T04:14:07.367Z,0.77
2016-12-04T04:15:07.946Z,1.01
2016-12-04T04:16:07.527Z,0.88
2016-12-04T04:17:08.208Z,0.90
2016-12-04T04:18:09.106Z,0.90
2016-12-04T04:19:07.686Z,1.04
2016-12-04T04:20:07.347Z,1.03
2016-12-04T04:21:08.019Z,0.93
2016-12-04T04:22:07.534Z,0.87
2016-12-04T04:23:07.980Z,0.96
2016-12-04T04:24:07.368Z,1.16
2016-12-04T04:25:07.554Z,0.76
2016-12-04T04:26:08.186Z,1.00
2016-12-04T04:27:07.704Z,0.72
2016-12-04T04:28:07.304Z,0.59
2016-12-04T04:29:07.976Z,0.74
2016-12-04T04:30:07.436Z,0.77
2016-12-04T04:31:08.051Z,0.80
2016-12-04T04:32:07.657Z,1.13
2016-12-04T04:33:07.166Z,1.04
2016-12-04T04:34:07.889Z,1.21
2016-12-04T04:35:07.477Z,1.27
2016-12-04T04:36:08.167Z,1.21
2016-12-04T04:37:07.740Z,1.31
2016-12-04T04:38:07.230Z,1.36
2016-12-04T04:39:07.676Z,1.17
2016-12-04T04:40:07.927Z,0.85
2016-12-04T04:41:07.537Z,0.83
2016-12-04T04:42:08.177Z,0.72
2016-12-04T04:43:07.835Z,0.93
2016-12-04T04:44:07.400Z,1.08
2016-12-04T04:45:08.027Z,1.13
2016-12-04T04:46:07.635Z,1.14
2016-12-04T04:47:07.207Z,1.04
2016-12-04T04:48:07.680Z,0.95
2016-12-04T04:49:08.153Z,0.93
2016-12-04T04:50:07.806Z,0.93
2016-12-04T04:51:07.350Z,0.78
2016-12-04T04:52:08.815Z,0.94
2016-12-04T04:53:07.326Z,0.93
2016-12-04T04:54:07.993Z,0.90
2016-12-04T04:55:07.559Z,1.08
2016-12-04T04:56:08.127Z,1.08
2016-12-04T04:57:07.709Z,1.03
2016-12-04T04:58:07.270Z,1.02
2016-12-04T04:59:07.850Z,0.74
2016-12-04T05:00:07.629Z,0.93
2016-12-04T05:01:07.247Z,0.92
2016-12-04T05:02:07.758Z,0.73
2016-12-04T05:03:07.280Z,0.84
2016-12-04T05:04:08.001Z,0.97
2016-12-04T05:05:07.613Z,0.90
2016-12-04T05:06:07.119Z,0.78
2016-12-04T05:07:07.676Z,0.85
2016-12-04T05:08:07.247Z,0.74
2016-12-04T05:09:07.898Z,0.98
2016-12-04T05:10:07.503Z,1.02
2016-12-04T05:11:08.137Z,1.07
2016-12-04T05:12:07.676Z,1.03
2016-12-04T05:13:07.188Z,0.98
2016-12-04T05:14:07.797Z,0.91
2016-12-04T05:15:07.336Z,0.82
2016-12-04T05:16:07.884Z,0.88
2016-12-04T05:17:07.539Z,0.98
2016-12-04T05:18:08.206Z,1.00
2016-12-04T05:19:07.801Z,0.78
2016-12-04T05:20:07.311Z,0.78
2016-12-04T05:21:07.915Z,0.77
2016-12-04T05:22:07.503Z,0.79
2016-12-04T05:23:08.098Z,0.74
2016-12-04T05:24:07.986Z,0.75
2016-12-04T05:25:09.928Z,0.91
2016-12-04T05:26:07.483Z,0.92
2016-12-04T05:27:08.091Z,0.76
2016-12-04T05:28:07.689Z,0.71
2016-12-04T05:29:07.372Z,0.79
2016-12-04T05:30:07.960Z,0.85
2016-12-04T05:31:08.877Z,0.70
2016-12-04T05:32:07.372Z,0.64
2016-12-04T05:33:07.971Z,0.59
2016-12-04T05:34:07.608Z,0.76
2016-12-04T05:35:07.197Z,0.67
2016-12-04T05:36:07.790Z,0.64
2016-12-04T05:37:09.269Z,0.84
2016-12-04T05:38:07.825Z,0.86
2016-12-04T05:39:07.509Z,0.76
2016-12-04T05:40:08.219Z,0.94
2016-12-04T05:41:07.863Z,0.70
2016-12-04T05:42:07.355Z,0.90
2016-12-04T05:43:07.895Z,0.64
2016-12-04T05:44:07.391Z,0.45
2016-12-04T05:45:07.832Z,0.85
2016-12-04T05:46:07.651Z,0.75
2016-12-04T05:47:09.013Z,0.69
2016-12-04T05:48:07.686Z,0.89
2016-12-04T05:49:07.252Z,0.53
2016-12-04T05:50:07.869Z,0.43
2016-12-04T05:51:07.378Z,0.65
2016-12-04T05:52:07.944Z,0.73
2016-12-04T05:53:07.459Z,0.78
2016-12-04T05:54:08.048Z,0.79
2016-12-04T05:55:08.491Z,1.00
2016-12-04T05:56:08.097Z,0.84
2016-12-04T05:57:07.708Z,0.49
2016-12-04T05:58:07.270Z,0.52
2016-12-04T05:59:07.848Z,0.60
2016-12-04T06:00:07.415Z,0.35
2016-12-04T06:01:08.025Z,0.42
2016-12-04T06:02:07.634Z,0.69
2016-12-04T06:03:07.106Z,0.43
2016-12-04T06:04:07.584Z,0.61
2016-12-04T06:05:07.366Z,0.59
2016-12-04T06:06:07.942Z,0.53
2016-12-04T06:07:07.442Z,0.59
2016-12-04T06:08:07.983Z,0.69
2016-12-04T06:09:07.715Z,0.87
2016-12-04T06:10:07.852Z,0.69
2016-12-04T06:11:07.433Z,0.53
2016-12-04T06:12:08.068Z,0.55
2016-12-04T06:13:07.548Z,0.73
2016-12-04T06:14:07.197Z,0.68
2016-12-04T06:15:07.760Z,0.70
2016-12-04T06:16:07.268Z,0.73
2016-12-04T06:17:07.932Z,0.79
2016-12-04T06:18:07.397Z,0.40
2016-12-04T06:19:07.979Z,0.36
2016-12-04T06:20:07.500Z,0.31
2016-12-04T06:21:08.039Z,0.35
2016-12-04T06:22:07.510Z,0.35
2016-12-04T06:23:08.036Z,0.36
2016-12-04T06:24:07.638Z,0.53
2016-12-04T06:25:07.232Z,0.36
2016-12-04T06:26:07.824Z,0.41
2016-12-04T06:27:07.387Z,0.66
2016-12-04T06:28:08.034Z,0.74
2016-12-04T06:29:07.542Z,0.54
2016-12-04T06:30:08.228Z,0.60
2016-12-04T06:31:07.827Z,0.76
2016-12-04T06:32:07.354Z,0.52
2016-12-04T06:33:08.030Z,0.50
2016-12-04T06:34:07.640Z,0.53
2016-12-04T06:35:07.224Z,0.74
2016-12-04T06:36:07.757Z,0.49
2016-12-04T06:37:07.263Z,0.48
2016-12-04T06:38:07.778Z,0.36
2016-12-04T06:39:07.339Z,0.29
2016-12-04T06:40:07.928Z,0.36
2016-12-04T06:41:07.441Z,0.65
2016-12-04T06:42:08.098Z,0.70
2016-12-04T06:43:07.557Z,0.82
2016-12-04T06:44:09.590Z,0.85
2016-12-04T06:45:07.768Z,0.94
2016-12-04T06:47:07.458Z,0.79
2016-12-04T06:48:08.058Z,0.87
2016-12-04T06:49:07.610Z,0.69
2016-12-04T06:50:07.133Z,0.61
2016-12-04T06:51:07.760Z,0.64
2016-12-04T06:52:07.257Z,0.46
2016-12-04T06:53:07.781Z,0.46
2016-12-04T06:54:07.280Z,0.66
2016-12-04T06:55:07.977Z,0.74
2016-12-04T06:56:07.513Z,0.59
2016-12-04T06:57:08.193Z,0.44
2016-12-04T06:58:07.824Z,0.67
2016-12-04T06:59:07.414Z,0.69
2016-12-04T07:00:08.116Z,0.80
2016-12-04T07:01:07.698Z,0.77
2016-12-04T07:02:07.236Z,0.75
2016-12-04T07:03:07.813Z,0.83
2016-12-04T07:04:07.364Z,1.02
2016-12-04T07:05:08.095Z,1.04
2016-12-04T07:06:07.715Z,1.04
2016-12-04T07:07:07.222Z,1.08
2016-12-04T07:08:07.797Z,0.84
2016-12-04T07:09:07.226Z,0.78
2016-12-04T07:10:07.837Z,0.79
2016-12-04T07:11:07.431Z,0.88
2016-12-04T07:12:08.151Z,0.88
2016-12-04T07:13:07.816Z,1.03
2016-12-04T07:14:07.420Z,0.85
2016-12-04T07:15:07.947Z,0.78
2016-12-04T07:16:07.666Z,0.87
2016-12-04T07:17:08.057Z,0.74
2016-12-04T07:18:07.661Z,0.97
2016-12-04T07:19:07.098Z,1.07
2016-12-04T07:20:07.683Z,0.86
2016-12-04T07:21:07.898Z,1.00
2016-12-04T07:22:07.486Z,0.97
2016-12-04T07:23:07.930Z,0.88
2016-12-04T07:24:08.141Z,0.65
2016-12-04T07:25:07.739Z,0.83
2016-12-04T07:26:07.472Z,1.07
2016-12-04T07:27:08.036Z,0.88
2016-12-04T07:28:07.867Z,0.97
2016-12-04T07:29:07.816Z,1.06
2016-12-04T07:30:27.082Z,0.94
2016-12-04T07:31:07.688Z,0.92
2016-12-04T07:32:17.742Z,0.94
2016-12-04T07:33:07.306Z,1.05
2016-12-04T07:34:07.934Z,0.85
2016-12-04T07:35:08.356Z,0.77
2016-12-04T07:36:14.396Z,0.73
2016-12-04T07:37:08.094Z,0.78
2016-12-04T07:38:07.727Z,0.90
2016-12-04T07:39:07.406Z,1.03
2016-12-04T07:40:08.333Z,0.84
2016-12-04T07:41:08.091Z,0.78
2016-12-04T07:42:07.706Z,0.88
2016-12-04T07:43:07.314Z,0.74
2016-12-04T07:44:07.978Z,1.11
2016-12-04T07:45:07.511Z,1.08
2016-12-04T07:46:08.264Z,1.05
2016-12-04T07:47:07.892Z,1.01
2016-12-04T07:48:07.491Z,1.04
2016-12-04T07:49:08.152Z,0.96
2016-12-04T07:50:07.783Z,0.72
2016-12-04T07:51:07.333Z,0.96
2016-12-04T07:52:07.955Z,0.88
2016-12-04T07:53:07.457Z,0.79
2016-12-04T07:54:08.002Z,0.86
2016-12-04T07:55:07.556Z,0.96
2016-12-04T07:56:08.145Z,0.84
2016-12-04T07:57:07.781Z,0.95
2016-12-04T07:58:07.263Z,0.91
2016-12-04T07:59:07.755Z,1.03
2016-12-04T08:00:07.541Z,1.09
2016-12-04T08:01:07.384Z,0.73
2016-12-04T08:02:07.947Z,0.91
2016-12-04T08:03:07.471Z,0.85
2016-12-04T08:04:08.125Z,0.92
2016-12-04T08:05:07.625Z,0.97
2016-12-04T08:06:07.103Z,0.93
2016-12-04T08:07:07.668Z,0.93
2016-12-04T08:08:07.190Z,1.13
2016-12-04T08:09:07.749Z,1.07
2016-12-04T08:10:07.301Z,0.75
2016-12-04T08:11:07.930Z,0.75
2016-12-04T08:12:07.519Z,0.76
2016-12-04T08:13:08.135Z,0.85
2016-12-04T08:14:07.655Z,1.04
2016-12-04T08:15:07.186Z,1.09
2016-12-04T08:16:07.776Z,1.01
2016-12-04T08:17:07.451Z,0.90
2016-12-04T08:18:08.086Z,1.01
2016-12-04T08:19:07.649Z,0.91
2016-12-04T08:20:07.122Z,0.86
2016-12-04T08:21:08.045Z,0.84
2016-12-04T08:22:07.549Z,0.96
2016-12-04T08:23:08.211Z,1.08
2016-12-04T08:24:07.876Z,0.78
2016-12-04T08:25:07.409Z,0.89
2016-12-04T08:26:07.964Z,0.86
2016-12-04T08:27:07.565Z,1.00
2016-12-04T08:28:08.195Z,1.12
2016-12-04T08:29:07.774Z,1.14
2016-12-04T08:30:07.300Z,1.20
2016-12-04T08:31:07.834Z,1.12
2016-12-04T08:32:07.340Z,1.07
2016-12-04T08:33:07.997Z,1.28
2016-12-04T08:34:07.385Z,1.36
2016-12-04T08:35:08.005Z,1.05
2016-12-04T08:36:07.618Z,1.10
2016-12-04T08:37:07.215Z,0.98
2016-12-04T08:38:08.059Z,1.04
2016-12-04T08:39:07.635Z,1.10
2016-12-04T08:40:07.213Z,1.23
2016-12-04T08:41:07.801Z,1.47
2016-12-04T08:42:07.425Z,1.43
2016-12-04T08:43:08.033Z,1.55
2016-12-04T08:44:07.604Z,1.43
2016-12-04T08:45:07.377Z,1.45
2016-12-04T08:46:07.994Z,1.29
2016-12-04T08:47:07.558Z,1.09
2016-12-04T08:48:08.157Z,1.28
2016-12-04T08:49:07.791Z,1.38
2016-12-04T08:50:07.331Z,1.20
2016-12-04T08:51:07.848Z,1.29
2016-12-04T08:52:07.377Z,1.28
2016-12-04T08:53:07.923Z,1.15
2016-12-04T08:54:08.100Z,1.44
2016-12-04T08:55:07.729Z,1.41
2016-12-04T08:56:07.280Z,1.36
2016-12-04T08:57:07.827Z,1.22
2016-12-04T08:58:07.469Z,1.22
2016-12-04T08:59:08.079Z,1.29
2016-12-04T09:00:07.973Z,1.30
2016-12-04T09:01:07.501Z,1.33
2016-12-04T09:02:08.109Z,1.02
2016-12-04T09:03:07.700Z,1.13
2016-12-04T09:04:07.215Z,1.06
2016-12-04T09:05:07.695Z,1.30
2016-12-04T09:06:07.618Z,1.33
2016-12-04T09:07:07.096Z,1.23
2016-12-04T09:08:07.568Z,1.20
2016-12-04T09:09:09.202Z,1.30
2016-12-04T09:10:07.901Z,1.27
2016-12-04T09:11:07.379Z,1.40
2016-12-04T09:12:08.216Z,1.37
2016-12-04T09:13:08.009Z,1.26
2016-12-04T09:14:14.156Z,1.40
2016-12-04T09:15:07.731Z,1.23
2016-12-04T09:16:07.267Z,1.14
2016-12-04T09:17:07.947Z,1.13
2016-12-04T09:18:07.589Z,1.22
2016-12-04T09:19:07.198Z,1.50
2016-12-04T09:20:07.785Z,1.60
2016-12-04T09:21:07.388Z,1.52
2016-12-04T09:22:08.087Z,1.53
2016-12-04T09:23:07.783Z,1.36
2016-12-04T09:24:07.311Z,1.43
2016-12-04T09:25:07.975Z,1.62
2016-12-04T09:26:07.551Z,1.29
2016-12-04T09:27:08.217Z,1.41
2016-12-04T09:28:07.862Z,1.65
2016-12-04T09:29:07.392Z,1.67
2016-12-04T09:30:08.005Z,1.75
2016-12-04T09:31:07.495Z,1.65
2016-12-04T09:32:08.121Z,1.53
2016-12-04T09:33:07.688Z,1.48
2016-12-04T09:34:07.262Z,1.57
2016-12-04T09:35:07.878Z,1.49
2016-12-04T09:36:07.448Z,1.61
2016-12-04T09:37:08.147Z,1.66
2016-12-04T09:38:07.771Z,1.55
2016-12-04T09:39:07.450Z,1.63
2016-12-04T09:40:08.080Z,1.67
2016-12-04T09:41:07.678Z,1.64
2016-12-04T09:42:07.203Z,1.63
2016-12-04T09:43:07.787Z,1.51
2016-12-04T09:44:07.327Z,1.52
2016-12-04T09:45:07.986Z,1.60
2016-12-04T09:46:07.715Z,1.62
2016-12-04T09:47:07.230Z,1.24
2016-12-04T09:48:07.935Z,1.41
2016-12-04T09:49:07.531Z,1.42
2016-12-04T09:50:08.107Z,1.48
2016-12-04T09:51:07.771Z,1.41
2016-12-04T09:52:07.250Z,1.51
2016-12-04T09:53:07.900Z,1.77
2016-12-04T09:54:07.505Z,1.85
2016-12-04T09:55:08.655Z,1.78
2016-12-04T09:56:07.185Z,1.71
2016-12-04T09:57:07.782Z,1.70
2016-12-04T09:58:07.333Z,1.70
2016-12-04T09:59:07.866Z,1.66
2016-12-04T10:00:07.418Z,1.45
2016-12-04T10:01:08.083Z,1.47
2016-12-04T10:02:07.728Z,1.21
2016-12-04T10:03:07.246Z,1.28
2016-12-04T10:04:07.853Z,1.55
2016-12-04T10:05:07.336Z,1.59
2016-12-04T10:06:07.973Z,1.56
2016-12-04T10:07:07.498Z,1.53
2016-12-04T10:08:08.239Z,1.72
2016-12-04T10:09:07.932Z,1.73
2016-12-04T10:10:07.547Z,1.72
2016-12-04T10:11:08.243Z,1.70
2016-12-04T10:12:07.859Z,1.85
2016-12-04T10:13:07.612Z,1.76
2016-12-04T10:14:07.152Z,1.87
2016-12-04T10:15:07.849Z,1.87
2016-12-04T10:16:07.395Z,1.78
2016-12-04T10:17:08.167Z,1.65
2016-12-04T10:18:07.777Z,1.60
2016-12-04T10:19:07.401Z,1.70
2016-12-04T10:20:07.995Z,1.52
2016-12-04T10:21:07.819Z,1.58
2016-12-04T10:22:07.387Z,1.72
2016-12-04T10:23:07.976Z,1.87
2016-12-04T10:24:07.504Z,1.58
2016-12-04T10:25:08.201Z,1.87
2016-12-04T10:26:07.764Z,1.66
2016-12-04T10:27:07.346Z,1.71
2016-12-04T10:28:07.978Z,1.82
2016-12-04T10:29:07.531Z,1.58
2016-12-04T10:30:08.242Z,1.53
2016-12-04T10:31:07.840Z,1.61
2016-12-04T10:32:07.333Z,1.51
2016-12-04T10:33:07.854Z,1.46
2016-12-04T10:34:07.478Z,1.35
2016-12-04T10:35:08.060Z,1.58
2016-12-04T10:36:07.632Z,1.66
2016-12-04T10:37:07.061Z,1.78
2016-12-04T10:38:07.540Z,1.58
2016-12-04T10:39:08.101Z,1.59
2016-12-04T10:40:07.653Z,1.65
2016-12-04T10:41:07.199Z,1.59
2016-12-04T10:42:07.860Z,1.46
2016-12-04T10:43:07.370Z,1.71
2016-12-04T10:44:07.991Z,1.81
2016-12-04T10:45:07.890Z,1.61
2016-12-04T10:46:07.571Z,1.71
2016-12-04T10:47:08.220Z,1.67
2016-12-04T10:48:07.812Z,1.67
2016-12-04T10:49:07.421Z,1.82
2016-12-04T10:50:07.999Z,1.88
2016-12-04T10:51:07.638Z,1.80
2016-12-04T10:52:07.147Z,1.67
2016-12-04T10:53:07.738Z,1.70
2016-12-04T10:54:07.213Z,1.92
2016-12-04T10:55:07.806Z,1.98
2016-12-04T10:56:07.360Z,1.89
2016-12-04T10:57:07.900Z,2.02
2016-12-04T10:58:07.453Z,2.01
2016-12-04T10:59:08.043Z,1.71
2016-12-04T11:00:07.670Z,1.74
2016-12-04T11:01:07.228Z,1.80
2016-12-04T11:02:18.369Z,2.04
2016-12-04T11:03:07.954Z,2.04
2016-12-04T11:04:07.737Z,1.99
2016-12-04T11:05:07.399Z,2.09
2016-12-04T11:06:08.033Z,1.58
2016-12-04T11:07:07.619Z,1.81
2016-12-04T11:08:07.189Z,1.52
2016-12-04T11:09:07.732Z,1.77
2016-12-04T11:10:07.260Z,1.93
2016-12-04T11:11:07.772Z,1.93
2016-12-04T11:12:07.268Z,1.93
2016-12-04T11:13:07.914Z,1.96
2016-12-04T11:14:12.910Z,1.95
2016-12-04T11:15:07.625Z,1.97
2016-12-04T11:16:07.192Z,2.06
2016-12-04T11:17:07.924Z,2.06
2016-12-04T11:18:07.412Z,1.95
2016-12-04T11:19:08.115Z,1.87
2016-12-04T11:20:07.624Z,1.86
2016-12-04T11:21:07.250Z,1.78
2016-12-04T11:22:07.949Z,1.77
2016-12-04T11:23:07.529Z,1.71
2016-12-04T11:24:08.164Z,1.81
2016-12-04T11:25:07.782Z,1.82
2016-12-04T11:26:07.483Z,1.86
2016-12-04T11:27:08.092Z,1.91
2016-12-04T11:28:07.689Z,1.89
2016-12-04T11:29:07.287Z,1.88
2016-12-04T11:30:07.903Z,1.90
2016-12-04T11:31:07.446Z,2.11
2016-12-04T11:32:08.113Z,1.95
2016-12-04T11:33:07.597Z,2.08
2016-12-04T11:34:07.112Z,2.02
2016-12-04T11:35:07.702Z,1.78
2016-12-04T11:36:07.259Z,1.70
2016-12-04T11:37:07.869Z,1.79
2016-12-04T11:38:07.587Z,1.71
2016-12-04T11:39:07.189Z,1.77
2016-12-04T11:40:07.775Z,1.82
2016-12-04T11:41:07.414Z,1.85
2016-12-04T11:42:08.090Z,1.91
2016-12-04T11:43:07.756Z,1.89
2016-12-04T11:44:07.342Z,1.75
2016-12-04T11:45:08.059Z,1.50
2016-12-04T11:46:07.634Z,1.72
2016-12-04T11:47:07.253Z,1.75
2016-12-04T11:48:07.845Z,2.05
2016-12-04T11:49:07.493Z,1.87
2016-12-04T11:50:08.192Z,1.94
2016-12-04T11:51:07.862Z,1.80
2016-12-04T11:52:07.361Z,2.02
2016-12-04T11:53:07.912Z,1.99
2016-12-04T11:54:07.529Z,1.94
2016-12-04T11:55:08.190Z,1.88
2016-12-04T11:56:07.790Z,1.90
2016-12-04T11:57:07.315Z,1.89
2016-12-04T11:58:07.972Z,1.88
2016-12-04T11:59:07.496Z,1.86
2016-12-04T12:00:08.005Z,1.85
2016-12-04T12:01:07.643Z,2.13
2016-12-04T12:02:07.405Z,2.20
2016-12-04T12:03:08.024Z,2.19
2016-12-04T12:04:07.488Z,1.87
2016-12-04T12:05:07.305Z,1.86
2016-12-04T12:06:07.882Z,1.76
2016-12-04T12:07:07.551Z,1.88
2016-12-04T12:08:08.189Z,1.90
2016-12-04T12:09:07.804Z,1.66
2016-12-04T12:10:07.384Z,1.78
2016-12-04T12:11:07.966Z,2.15
2016-12-04T12:12:07.629Z,2.06
2016-12-04T12:13:07.254Z,2.06
2016-12-04T12:14:07.826Z,2.06
2016-12-04T12:15:07.354Z,2.01
2016-12-04T12:16:07.978Z,2.26
2016-12-04T12:17:07.645Z,2.09
2016-12-04T12:18:07.174Z,2.21
2016-12-04T12:19:07.772Z,2.19
2016-12-04T12:20:07.242Z,2.12
2016-12-04T12:21:07.793Z,2.17
2016-12-04T12:22:07.351Z,1.92
2016-12-04T12:23:07.962Z,2.04
2016-12-04T12:24:07.605Z,2.08
2016-12-04T12:25:07.162Z,2.07
2016-12-04T12:26:07.763Z,2.14
2016-12-04T12:27:07.341Z,2.08
2016-12-04T12:28:07.958Z,1.86
2016-12-04T12:29:07.605Z,1.64
2016-12-04T12:30:07.091Z,1.60
2016-12-04T12:31:07.611Z,1.72
2016-12-04T12:32:07.103Z,1.80
2016-12-04T12:33:07.690Z,1.99
2016-12-04T12:34:07.259Z,1.68
2016-12-04T12:35:07.904Z,1.56
2016-12-04T12:36:07.395Z,1.75
2016-12-04T12:37:07.985Z,2.02
2016-12-04T12:38:07.553Z,2.07
2016-12-04T12:39:08.139Z,2.09
2016-12-04T12:40:07.619Z,2.07
2016-12-04T12:41:07.270Z,1.96
2016-12-04T12:42:07.901Z,1.85
2016-12-04T12:43:07.392Z,1.84
2016-12-04T12:44:07.779Z,1.99
2016-12-04T12:45:07.361Z,1.77
2016-12-04T12:46:08.034Z,1.74
2016-12-04T12:47:07.644Z,1.83
2016-12-04T12:48:07.100Z,1.81
2016-12-04T12:49:07.905Z,1.83
2016-12-04T12:50:07.504Z,1.83
2016-12-04T12:51:08.211Z,1.95
2016-12-04T12:52:07.828Z,1.89
2016-12-04T12:53:07.341Z,1.75
2016-12-04T12:54:07.956Z,1.62
2016-12-04T12:55:07.529Z,1.83
2016-12-04T12:56:08.165Z,1.70
2016-12-04T12:57:07.601Z,1.58
2016-12-04T12:58:07.577Z,1.59
2016-12-04T12:59:08.285Z,1.59
2016-12-04T13:00:07.888Z,1.70
2016-12-04T13:01:07.457Z,1.73
2016-12-04T13:02:08.086Z,1.93
2016-12-04T13:03:07.677Z,1.89
2016-12-04T13:04:07.274Z,1.70
2016-12-04T13:05:08.151Z,1.80
2016-12-04T13:06:07.703Z,1.75
2016-12-04T13:07:07.237Z,1.79
2016-12-04T13:08:07.805Z,1.83
2016-12-04T13:09:07.377Z,1.98
2016-12-04T13:10:07.880Z,2.12
2016-12-04T13:11:07.389Z,2.02
2016-12-04T13:12:08.074Z,1.76
2016-12-04T13:13:07.609Z,1.69
2016-12-04T13:14:07.216Z,1.78
2016-12-04T13:15:07.816Z,1.71
2016-12-04T13:16:07.482Z,1.85
2016-12-04T13:17:08.286Z,1.60
2016-12-04T13:18:07.940Z,1.73
2016-12-04T13:19:07.569Z,1.77